Terminal Aerodrome Forecast
Issued by NWS Omaha/Valley, NE

Home | Current Version | Previous Version | Text Only | Print | Product List | Glossary On
Versions: 1 2 3 4 5 6 7 8 9 10 11 12 13 14 15 16 17 18 19 20 21 22
000
FTUS43 KOAX 160520
TAFOMA
TAF
KOMA 160520Z 1606/1706 16016KT P6SM BKN150 WS020/20055KT
     FM161400 18024G32KT P6SM BKN070
     FM161900 20021G32KT P6SM BKN100
     FM162100 30024G32KT P6SM OVC050=

USA.gov is the U.S. government's official web portal to all federal, state and local government web resources and services.